createdAt,value
2022-09-01T00:03:01.743Z,12.23
2022-09-01T00:08:05.398Z,12.24
2022-09-01T00:13:09.877Z,12.28
2022-09-01T00:18:15.798Z,12.17
2022-09-01T00:23:18.908Z,12.06
2022-09-01T00:28:21.946Z,12.05
2022-09-01T00:33:33.638Z,12.03
2022-09-01T00:38:36.793Z,11.87
2022-09-01T00:43:44.547Z,11.85
2022-09-01T00:48:54.352Z,11.92
2022-09-01T00:53:59.842Z,11.91
2022-09-01T00:59:03.018Z,11.68
2022-09-01T01:04:14.880Z,11.71
2022-09-01T01:09:18.819Z,11.77
2022-09-01T01:14:21.911Z,11.75
2022-09-01T01:19:56.695Z,11.75
2022-09-01T01:25:01.855Z,11.61
2022-09-01T01:30:10.040Z,11.66
2022-09-01T01:35:15.923Z,11.56
2022-09-01T01:40:22.975Z,11.63
2022-09-01T01:45:26.703Z,11.67
2022-09-01T01:50:35.844Z,11.71
2022-09-01T01:55:41.864Z,11.55
2022-09-01T02:00:46.745Z,11.53
2022-09-01T02:05:54.876Z,11.56
2022-09-01T02:11:00.224Z,11.45
2022-09-01T02:16:13.089Z,11.47
2022-09-01T02:21:20.631Z,11.58
2022-09-01T02:26:30.188Z,11.36
2022-09-01T02:31:35.740Z,11.36
2022-09-01T02:36:42.513Z,11.32
2022-09-01T02:41:49.418Z,11.32
2022-09-01T02:46:54.730Z,11.27
2022-09-01T02:52:02.047Z,11.34
2022-09-01T02:57:09.148Z,11.26
2022-09-01T03:02:12.630Z,11.20
2022-09-01T03:07:19.511Z,11.13
2022-09-01T03:12:28.327Z,11.10
2022-09-01T03:17:31.319Z,11.18
2022-09-01T03:22:34.787Z,10.79
2022-09-01T03:27:39.178Z,10.98
2022-09-01T03:32:42.290Z,11.02
2022-09-01T03:37:45.411Z,10.99
2022-09-01T03:42:49.821Z,11.11
2022-09-01T03:47:54.423Z,11.03
2022-09-01T03:53:00.510Z,10.70
2022-09-01T03:58:10.190Z,10.74
2022-09-01T04:03:17.022Z,10.88
2022-09-01T04:08:23.045Z,11.06
2022-09-01T04:13:32.175Z,10.88
2022-09-01T04:18:35.275Z,10.74
2022-09-01T04:23:39.225Z,10.79
2022-09-01T04:28:48.337Z,10.99
2022-09-01T04:33:53.239Z,10.97
2022-09-01T04:39:00.755Z,10.80
2022-09-01T04:44:07.423Z,11.00
2022-09-01T04:49:16.276Z,11.15
2022-09-01T04:54:20.961Z,10.97
2022-09-01T04:59:27.331Z,11.31
2022-09-01T05:04:34.969Z,11.51
2022-09-01T05:09:39.686Z,11.18
2022-09-01T05:15:09.271Z,11.52
2022-09-01T05:20:13.987Z,11.66
2022-09-01T05:25:17.191Z,11.57
2022-09-01T05:30:22.783Z,11.17
2022-09-01T05:35:32.409Z,11.23
2022-09-01T05:40:41.429Z,11.50
2022-09-01T05:46:05.764Z,11.69
2022-09-01T05:51:27.506Z,11.95
2022-09-01T05:56:33.937Z,12.06
2022-09-01T06:01:41.836Z,12.41
2022-09-01T06:07:06.948Z,12.16
2022-09-01T06:12:18.102Z,12.22
2022-09-01T06:17:25.878Z,12.58
2022-09-01T06:22:32.982Z,13.20
2022-09-01T06:27:41.293Z,13.67
2022-09-01T06:32:46.849Z,13.08
2022-09-01T06:37:49.950Z,13.51
2022-09-01T06:43:12.169Z,13.67
2022-09-01T06:48:20.056Z,13.78
2022-09-01T06:53:34.543Z,13.91
2022-09-01T06:58:41.689Z,14.41
2022-09-01T07:03:48.653Z,15.86
2022-09-01T07:14:22.267Z,15.29
2022-09-01T07:19:48.400Z,15.17
2022-09-01T07:25:11.753Z,15.15
2022-09-01T07:30:31.962Z,15.87
2022-09-01T07:36:24.771Z,15.99
2022-09-01T07:46:46.284Z,17.00
2022-09-01T07:51:57.019Z,16.02
2022-09-01T07:57:03.056Z,17.34
2022-09-01T08:02:08.426Z,17.58
2022-09-01T08:07:17.108Z,17.84
2022-09-01T08:12:28.929Z,17.15
2022-09-01T08:17:34.457Z,17.25
2022-09-01T08:22:54.746Z,18.01
2022-09-01T08:28:00.765Z,17.57
2022-09-01T08:33:11.913Z,17.44
2022-09-01T08:38:20.342Z,18.09
2022-09-01T08:43:38.863Z,17.35
2022-09-01T08:54:29.759Z,17.39
2022-09-01T08:59:35.436Z,18.08
2022-09-01T09:04:59.124Z,18.95
2022-09-01T09:10:12.745Z,19.76
2022-09-01T09:15:23.660Z,17.92
2022-09-01T09:20:27.418Z,18.31
2022-09-01T09:25:31.791Z,18.89
2022-09-01T09:30:34.960Z,18.86
2022-09-01T09:35:42.011Z,19.90
2022-09-01T09:46:25.625Z,19.49
2022-09-01T09:51:29.523Z,20.53
2022-09-01T09:56:34.482Z,20.00
2022-09-01T10:01:37.660Z,20.01
2022-09-01T10:06:45.321Z,20.17
2022-09-01T10:11:54.009Z,20.07
2022-09-01T10:17:04.439Z,17.55
2022-09-01T10:22:12.564Z,19.52
2022-09-01T10:27:22.549Z,19.32
2022-09-01T10:32:38.241Z,19.93
2022-09-01T10:37:50.250Z,19.51
2022-09-01T10:42:57.073Z,19.13
2022-09-01T10:48:31.161Z,19.09
2022-09-01T10:53:41.351Z,19.73
2022-09-01T11:04:40.004Z,19.41
2022-09-01T11:09:45.116Z,19.89
2022-09-01T11:14:52.740Z,19.50
2022-09-01T11:19:59.234Z,20.01
2022-09-01T11:25:39.456Z,19.82
2022-09-01T11:30:52.919Z,21.05
2022-09-01T11:36:01.507Z,19.40
2022-09-01T11:41:06.559Z,20.29
2022-09-01T11:46:18.698Z,20.64
2022-09-01T11:51:22.305Z,20.58
2022-09-01T11:56:28.296Z,20.34
2022-09-01T12:01:36.391Z,20.07
2022-09-01T12:06:39.408Z,19.45
2022-09-01T12:11:42.755Z,19.40
2022-09-01T12:17:08.505Z,19.10
2022-09-01T12:22:16.148Z,19.70
2022-09-01T12:27:19.572Z,19.69
2022-09-01T12:32:24.056Z,19.91
2022-09-01T12:37:28.305Z,18.90
2022-09-01T12:42:41.166Z,18.84
2022-09-01T12:47:52.454Z,19.54
2022-09-01T12:52:58.280Z,19.86
2022-09-01T12:58:03.217Z,19.52
2022-09-01T13:03:14.144Z,20.12
2022-09-01T13:08:20.345Z,19.98
2022-09-01T13:13:25.596Z,19.90
2022-09-01T13:18:30.393Z,19.39
2022-09-01T13:23:33.459Z,18.76
2022-09-01T13:28:38.946Z,19.59
2022-09-01T13:39:08.260Z,20.48
2022-09-01T13:44:11.659Z,20.65
2022-09-01T13:54:38.958Z,20.03
2022-09-01T13:59:42.153Z,19.93
2022-09-01T14:04:46.550Z,20.26
2022-09-01T14:09:49.616Z,19.90
2022-09-01T14:20:19.799Z,19.84
2022-09-01T14:25:23.329Z,19.66
2022-09-01T14:30:31.597Z,19.60
2022-09-01T14:35:39.341Z,19.56
2022-09-01T14:40:44.679Z,19.40
2022-09-01T14:45:48.225Z,19.00
2022-09-01T14:50:52.779Z,19.19
2022-09-01T14:55:57.057Z,18.82
2022-09-01T15:01:11.880Z,19.32
2022-09-01T15:06:24.820Z,19.14
2022-09-01T15:11:28.487Z,19.28
2022-09-01T15:16:35.565Z,19.30
2022-09-01T15:21:42.115Z,19.27
2022-09-01T15:26:47.326Z,19.18
2022-09-01T15:31:50.372Z,18.80
2022-09-01T15:36:54.991Z,18.98
2022-09-01T15:41:58.006Z,18.56
2022-09-01T15:47:01.004Z,18.50
2022-09-01T15:52:05.689Z,18.48
2022-09-01T15:57:09.020Z,18.30
2022-09-01T16:02:15.289Z,18.34
2022-09-01T16:07:19.720Z,18.43
2022-09-01T16:12:22.819Z,18.17
2022-09-01T16:17:43.987Z,18.17
2022-09-01T16:22:54.783Z,18.12
2022-09-01T16:27:58.893Z,18.13
2022-09-01T16:33:19.872Z,18.23
2022-09-01T16:38:35.872Z,18.19
2022-09-01T16:43:48.468Z,18.07
2022-09-01T16:48:57.896Z,18.16
2022-09-01T16:54:13.025Z,17.94
2022-09-01T16:59:26.378Z,17.88
2022-09-01T17:04:37.099Z,17.76
2022-09-01T17:09:43.599Z,17.65
2022-09-01T17:14:52.043Z,17.39
2022-09-01T17:19:55.338Z,17.39
2022-09-01T17:30:12.594Z,17.35
2022-09-01T17:35:24.248Z,17.27
2022-09-01T17:40:35.702Z,17.20
2022-09-01T17:45:47.664Z,17.05
2022-09-01T17:51:04.509Z,17.03
2022-09-01T17:56:32.785Z,16.92
2022-09-01T18:01:43.921Z,16.81
2022-09-01T18:06:52.652Z,16.64
2022-09-01T18:12:02.605Z,16.51
2022-09-01T18:17:11.707Z,16.33
2022-09-01T18:22:18.068Z,16.10
2022-09-01T18:27:24.245Z,16.00
2022-09-01T18:32:40.271Z,15.83
2022-09-01T18:37:54.866Z,15.69
2022-09-01T18:43:12.486Z,15.40
2022-09-01T18:48:26.699Z,15.49
2022-09-01T18:53:37.934Z,15.34
2022-09-01T18:58:54.337Z,15.29
2022-09-01T19:04:09.898Z,15.27
2022-09-01T19:09:18.414Z,15.15
2022-09-01T19:14:30.395Z,15.04
2022-09-01T19:19:43.697Z,15.06
2022-09-01T19:24:51.961Z,15.01
2022-09-01T19:30:00.206Z,14.82
2022-09-01T19:35:11.302Z,14.61
2022-09-01T19:40:18.254Z,14.65
2022-09-01T19:45:41.851Z,14.52
2022-09-01T19:50:51.030Z,14.41
2022-09-01T19:55:58.912Z,14.37
2022-09-01T20:01:12.558Z,14.21
2022-09-01T20:06:25.135Z,14.07
2022-09-01T20:11:41.557Z,13.89
2022-09-01T20:16:48.633Z,13.80
2022-09-01T20:21:51.836Z,13.81
2022-09-01T20:27:01.648Z,13.71
2022-09-01T20:32:07.283Z,13.54
2022-09-01T20:37:16.007Z,13.34
2022-09-01T20:42:24.427Z,13.32
2022-09-01T20:47:30.629Z,13.31
2022-09-01T20:52:41.061Z,13.24
2022-09-01T20:57:51.997Z,13.06
2022-09-01T21:03:04.006Z,12.88
2022-09-01T21:08:19.230Z,12.83
2022-09-01T21:13:34.968Z,12.79
2022-09-01T21:18:53.996Z,12.78
2022-09-01T21:23:56.958Z,12.68
2022-09-01T21:29:08.216Z,12.62
2022-09-01T21:34:16.708Z,12.48
2022-09-01T21:39:19.940Z,12.38
2022-09-01T21:44:23.197Z,12.35
2022-09-01T21:49:27.617Z,12.21
2022-09-01T21:54:32.148Z,12.26
2022-09-01T21:59:35.211Z,12.02
2022-09-01T22:04:39.916Z,11.98
2022-09-01T22:09:43.107Z,11.94
2022-09-01T22:14:46.068Z,11.87
2022-09-01T22:19:50.445Z,11.84
2022-09-01T22:24:53.530Z,11.74
2022-09-01T22:29:56.538Z,11.76
2022-09-01T22:35:02.715Z,11.66
2022-09-01T22:40:07.412Z,11.58
2022-09-01T22:45:12.145Z,11.48
2022-09-01T22:50:16.547Z,11.40
2022-09-01T22:55:19.683Z,11.39
2022-09-01T23:00:22.707Z,11.29
2022-09-01T23:05:27.334Z,11.23
2022-09-01T23:10:30.448Z,11.24
2022-09-01T23:15:33.757Z,11.15
2022-09-01T23:20:38.108Z,10.98
2022-09-01T23:25:43.687Z,10.92
2022-09-01T23:30:49.805Z,11.03
2022-09-01T23:35:57.046Z,10.89
2022-09-01T23:41:01.420Z,10.77
2022-09-01T23:46:05.983Z,10.72
2022-09-01T23:51:11.939Z,10.65
2022-09-01T23:56:19.365Z,10.63
